Time;durP1;ratioP1;P1;durP2;ratioP2;P2;SDS_P1;SDS_P2;PMS_P1;PMS_P2;Temp;Humidity;BMP_temperature;BMP_pressure;BME280_temperature;BME280_humidity;BME280_pressure;Samples;Min_cycle;Max_cycle;Signal;HPM_P1;HPM_P2
2022/08/14 00:02:24;;;;;;;;;;;;;;;21.50;70.34;99015.75;5054815;28;20016;-72
2022/08/14 00:04:56;;;;;;;;;;;;;;;21.51;70.66;99011.38;5055276;28;20365;-72
2022/08/14 00:07:24;;;;;;;;;;;;;;;21.56;70.36;99010.22;5054805;28;19974;-71
2022/08/14 00:09:53;;;;;;;;;;;;;;;21.58;70.14;99007.53;5055018;28;20008;-72
2022/08/14 00:12:45;;;;;;;;;;;;;;;21.51;70.33;99001.84;5055075;28;19932;-72
2022/08/14 00:15:25;;;;;;;;;;;;;;;21.38;70.45;99000.03;5054578;28;19925;-72
2022/08/14 00:17:57;;;;;;;;;;;;;;;21.25;70.74;99003.28;5054956;28;19924;-72
2022/08/14 00:20:28;;;;;;;;;;;;;;;21.17;71.47;98996.84;5054463;28;20019;-72
2022/08/14 00:23:09;;;;;;;;;;;;;;;21.21;71.29;98991.38;5054553;28;19956;-72
2022/08/14 00:25:46;;;;;;;;;;;;;;;21.21;71.22;98999.16;5054522;28;20042;-72
2022/08/14 00:28:32;;;;;;;;;;;;;;;21.25;71.23;98999.84;5054790;28;19925;-72
2022/08/14 00:31:04;;;;;;;;;;;;;;;21.11;71.36;99003.22;5054667;28;20316;-72
2022/08/14 00:33:33;;;;;;;;;;;;;;;20.90;71.56;98996.53;5054728;28;19966;-71
2022/08/14 00:36:23;;;;;;;;;;;;;;;20.73;72.47;98996.63;5054317;28;20469;-72
2022/08/14 00:39:14;;;;;;;;;;;;;;;20.61;72.85;99002.44;5055134;28;20342;-72
2022/08/14 00:41:46;;;;;;;;;;;;;;;20.56;73.16;98989.69;5054559;28;19978;-72
2022/08/14 00:44:15;;;;;;;;;;;;;;;20.50;73.55;98995.22;5053993;28;20355;-71
2022/08/14 00:47:00;;;;;;;;;;;;;;;20.48;73.41;98997.03;5054675;28;19924;-71
2022/08/14 00:49:31;;;;;;;;;;;;;;;20.43;73.51;98993.00;5054208;28;19925;-72
2022/08/14 00:52:13;;;;;;;;;;;;;;;20.38;74.00;99002.78;5054409;28;20287;-71
2022/08/14 00:54:51;;;;;;;;;;;;;;;20.30;74.11;98991.97;5054300;28;19979;-71
2022/08/14 00:57:26;;;;;;;;;;;;;;;20.20;74.28;98990.72;5053827;28;19933;-72
2022/08/14 00:59:56;;;;;;;;;;;;;;;20.13;74.42;98997.16;5054339;28;19929;-72
2022/08/14 01:02:25;;;;;;;;;;;;;;;20.00;74.60;99000.34;5054239;28;20035;-72
2022/08/14 01:04:59;;;;;;;;;;;;;;;19.93;74.92;99001.56;5054579;28;20366;-72
2022/08/14 01:07:30;;;;;;;;;;;;;;;19.85;75.08;98990.72;5054002;28;20393;-72
2022/08/14 01:10:06;;;;;;;;;;;;;;;19.79;75.39;98997.97;5054440;28;19925;-71
2022/08/14 01:12:34;;;;;;;;;;;;;;;19.78;75.63;98984.19;5054416;28;19986;-72
2022/08/14 01:15:08;;;;;;;;;;;;;;;19.74;75.69;98987.84;5054183;28;19928;-71
2022/08/14 01:23:01;;;;;;;;;;;;;;;20.00;75.54;98995.16;5053781;28;19960;-71
2022/08/14 01:25:32;;;;;;;;;;;;;;;20.06;75.35;98984.47;5053771;28;19932;-71
2022/08/14 01:28:02;;;;;;;;;;;;;;;20.02;74.99;98989.91;5053717;28;19924;-71
2022/08/14 01:30:31;;;;;;;;;;;;;;;19.94;75.24;98990.28;5054028;28;20032;-72
2022/08/14 01:33:07;;;;;;;;;;;;;;;19.93;75.24;98988.63;5053691;28;20377;-71
2022/08/14 01:35:36;;;;;;;;;;;;;;;20.05;75.26;98987.16;5053649;28;19971;-71
2022/08/14 01:38:33;;;;;;;;;;;;;;;20.09;74.42;98988.66;5053670;28;19970;-71
2022/08/14 01:41:06;;;;;;;;;;;;;;;20.08;73.97;98993.00;5053662;28;19989;-71
2022/08/14 01:43:43;;;;;;;;;;;;;;;20.08;73.91;98987.81;5035985;28;20000;-71
2022/08/14 01:46:25;;;;;;;;;;;;;;;19.95;73.79;98981.59;5053605;28;19925;-72
2022/08/14 01:49:02;;;;;;;;;;;;;;;19.78;74.07;98989.38;5052376;28;19924;-72
2022/08/14 01:51:35;;;;;;;;;;;;;;;19.66;74.50;98978.75;5053627;28;19932;-71
2022/08/14 01:54:08;;;;;;;;;;;;;;;19.55;75.02;98981.88;5053727;28;19925;-71
2022/08/14 01:56:43;;;;;;;;;;;;;;;19.60;75.24;98990.28;5054682;28;19932;-72
2022/08/14 01:59:19;;;;;;;;;;;;;;;19.68;74.85;98987.28;5057103;28;20078;-72
2022/08/14 02:01:50;;;;;;;;;;;;;;;19.76;74.69;98986.00;5057547;28;20436;-72
2022/08/14 02:04:28;;;;;;;;;;;;;;;19.77;74.40;98981.69;5057463;28;20321;-71
2022/08/14 02:07:17;;;;;;;;;;;;;;;19.80;74.02;98987.53;5057473;28;20084;-71
2022/08/14 02:10:08;;;;;;;;;;;;;;;19.79;73.77;98980.69;5057361;28;20324;-71
2022/08/14 02:12:43;;;;;;;;;;;;;;;19.77;73.64;98979.91;5057374;28;19931;-72
2022/08/14 02:15:21;;;;;;;;;;;;;;;19.72;73.59;98981.91;5056876;28;19924;-71
2022/08/14 02:17:50;;;;;;;;;;;;;;;19.66;73.43;98996.88;5057184;28;19990;-71
2022/08/14 02:20:19;;;;;;;;;;;;;;;19.63;73.49;98995.28;5055673;28;19931;-71
2022/08/14 02:22:52;;;;;;;;;;;;;;;19.60;73.50;99005.81;5056852;28;19931;-71
2022/08/14 02:25:24;;;;;;;;;;;;;;;19.55;73.38;98997.41;5057167;28;19979;-71
2022/08/14 02:27:58;;;;;;;;;;;;;;;19.52;73.49;98994.97;5057063;28;20370;-72
2022/08/14 02:30:46;;;;;;;;;;;;;;;19.52;73.58;98997.56;5056721;28;20016;-71
2022/08/14 02:33:20;;;;;;;;;;;;;;;19.47;73.29;98998.69;5056638;28;19972;-70
2022/08/14 02:35:48;;;;;;;;;;;;;;;19.36;73.46;98997.44;5056429;28;20020;-72
2022/08/14 02:38:27;;;;;;;;;;;;;;;19.24;73.80;99000.56;5056964;28;19929;-72
2022/08/14 02:41:03;;;;;;;;;;;;;;;19.25;74.13;98998.81;5056546;28;19978;-72
2022/08/14 02:43:38;;;;;;;;;;;;;;;19.24;74.22;99002.34;5055582;28;20379;-73
2022/08/14 02:46:16;;;;;;;;;;;;;;;19.25;74.34;98999.66;5056379;28;19924;-71
2022/08/14 02:48:54;;;;;;;;;;;;;;;19.31;74.30;99008.91;5056687;28;19986;-72
2022/08/14 02:51:34;;;;;;;;;;;;;;;19.32;74.15;99002.78;5056316;28;19924;-72
2022/08/14 02:54:05;;;;;;;;;;;;;;;19.18;74.09;99012.94;5056357;28;20031;-72
2022/08/14 02:56:37;;;;;;;;;;;;;;;19.06;74.47;99013.50;5056444;28;20393;-72
2022/08/14 02:59:30;;;;;;;;;;;;;;;19.05;74.78;99017.03;5056003;28;20004;-71
2022/08/14 03:02:02;;;;;;;;;;;;;;;19.06;74.70;99018.69;5056463;28;20282;-72
2022/08/14 03:04:31;;;;;;;;;;;;;;;19.06;74.67;99021.28;5056429;28;19925;-72
2022/08/14 03:07:01;;;;;;;;;;;;;;;19.05;74.77;99022.19;5055469;28;19924;-72
2022/08/14 03:09:35;;;;;;;;;;;;;;;18.95;74.80;99016.59;5054807;28;20016;-72
2022/08/14 03:12:26;;;;;;;;;;;;;;;18.79;75.04;99019.94;5055943;28;19925;-72
2022/08/14 03:15:02;;;;;;;;;;;;;;;18.63;75.51;99019.78;5056258;28;19947;-72
2022/08/14 03:17:32;;;;;;;;;;;;;;;18.50;76.17;99014.28;5055696;28;19924;-72
2022/08/14 03:20:21;;;;;;;;;;;;;;;18.38;76.64;99016.56;5056174;28;19975;-72
2022/08/14 03:22:51;;;;;;;;;;;;;;;18.30;76.93;99019.47;5056314;28;20335;-71
2022/08/14 03:25:21;;;;;;;;;;;;;;;18.36;77.20;99021.78;5055651;28;19924;-72
2022/08/14 03:27:51;;;;;;;;;;;;;;;18.29;77.20;99020.34;5055885;28;20312;-72
2022/08/14 03:30:26;;;;;;;;;;;;;;;18.25;77.60;99016.22;5056270;28;19924;-72
2022/08/14 03:33:10;;;;;;;;;;;;;;;18.28;77.65;99015.25;5055631;28;19933;-70
2022/08/14 03:35:40;;;;;;;;;;;;;;;18.32;77.92;99007.31;5056151;28;19932;-73
2022/08/14 03:38:29;;;;;;;;;;;;;;;18.41;77.83;99006.91;5055348;28;19928;-72
2022/08/14 03:41:19;;;;;;;;;;;;;;;18.49;77.76;99004.88;5055734;28;20301;-72
2022/08/14 03:43:54;;;;;;;;;;;;;;;18.55;77.73;99007.19;5055336;28;19975;-72
2022/08/14 03:46:31;;;;;;;;;;;;;;;18.52;77.69;99002.13;5055294;28;19929;-72
2022/08/14 03:49:23;;;;;;;;;;;;;;;18.52;77.60;99002.13;5055597;28;19925;-72
2022/08/14 03:51:57;;;;;;;;;;;;;;;18.52;77.45;99004.72;5054002;28;20338;-71
2022/08/14 03:54:28;;;;;;;;;;;;;;;18.44;77.73;99008.53;5055224;28;20015;-72
2022/08/14 03:56:59;;;;;;;;;;;;;;;18.44;77.79;99011.09;5054963;28;19939;-72
2022/08/14 03:59:32;;;;;;;;;;;;;;;18.39;77.89;99011.31;5055209;28;20012;-72
2022/08/14 04:02:03;;;;;;;;;;;;;;;18.43;78.05;99007.69;5055267;28;19924;-72
2022/08/14 04:04:52;;;;;;;;;;;;;;;18.55;77.71;99012.34;5054832;28;20374;-71
2022/08/14 04:07:21;;;;;;;;;;;;;;;18.63;77.55;99012.88;5054738;28;19929;-71
2022/08/14 04:09:50;;;;;;;;;;;;;;;18.74;76.98;99018.38;5054994;28;19947;-71
2022/08/14 04:12:20;;;;;;;;;;;;;;;18.79;76.60;99019.94;5054740;28;19924;-71
2022/08/14 04:14:56;;;;;;;;;;;;;;;18.85;76.21;99014.50;5055071;28;19925;-72
2022/08/14 04:17:25;;;;;;;;;;;;;;;18.85;75.91;99009.31;5054839;28;19929;-71
2022/08/14 04:19:54;;;;;;;;;;;;;;;18.76;75.94;99020.91;5054072;28;19932;-72
2022/08/14 04:22:24;;;;;;;;;;;;;;;18.69;76.18;99012.56;5054541;28;19932;-72
2022/08/14 04:24:52;;;;;;;;;;;;;;;18.83;76.62;99016.31;5054851;28;19931;-72
2022/08/14 04:27:22;;;;;;;;;;;;;;;18.94;76.32;99016.66;5054439;28;19978;-73
2022/08/14 04:29:50;;;;;;;;;;;;;;;19.04;75.99;99020.50;5054394;28;20312;-72
2022/08/14 04:32:21;;;;;;;;;;;;;;;19.09;75.65;99016.81;5054288;28;20475;-72
2022/08/14 04:35:10;;;;;;;;;;;;;;;19.21;75.54;99007.66;5054646;28;19929;-71
2022/08/14 04:45:44;;;;;;;;;;;;;;;19.35;75.58;99020.78;5054582;28;19924;-72
2022/08/14 04:48:21;;;;;;;;;;;;;;;19.35;75.64;99011.25;5054152;28;19978;-72
2022/08/14 04:51:10;;;;;;;;;;;;;;;19.48;75.57;99021.06;5054401;28;20444;-72
2022/08/14 04:53:40;;;;;;;;;;;;;;;19.56;75.70;99019.78;5054069;28;19979;-72
2022/08/14 04:56:11;;;;;;;;;;;;;;;19.68;75.56;99024.38;5054401;28;19925;-71
2022/08/14 04:59:03;;;;;;;;;;;;;;;19.84;75.34;99011.53;5054099;28;20111;-72
2022/08/14 05:01:42;;;;;;;;;;;;;;;20.00;74.89;99015.03;5054081;28;19925;-71
2022/08/14 05:04:18;;;;;;;;;;;;;;;20.13;74.45;99020.47;5054050;28;20381;-72
2022/08/14 05:06:49;;;;;;;;;;;;;;;20.25;74.28;99019.88;5053938;28;20370;-71
2022/08/14 05:09:23;;;;;;;;;;;;;;;20.36;73.88;99013.22;5054201;28;19986;-72
2022/08/14 05:11:51;;;;;;;;;;;;;;;20.44;73.63;99010.25;5054185;28;19924;-71
2022/08/14 05:14:22;;;;;;;;;;;;;;;20.51;73.45;99009.03;5054175;28;20055;-72
2022/08/14 05:17:11;;;;;;;;;;;;;;;20.58;72.98;99019.00;5053796;28;19937;-72
2022/08/14 05:19:41;;;;;;;;;;;;;;;20.64;72.85;99012.63;5052623;28;19982;-72
2022/08/14 05:22:29;;;;;;;;;;;;;;;20.74;72.71;99013.84;5053878;28;19928;-72
2022/08/14 05:24:58;;;;;;;;;;;;;;;20.86;72.57;99013.19;5054359;28;20366;-72
2022/08/14 05:27:26;;;;;;;;;;;;;;;20.99;72.24;99011.63;5053688;28;19924;-72
2022/08/14 05:29:58;;;;;;;;;;;;;;;21.08;72.10;99008.56;5053780;28;19975;-72
2022/08/14 05:32:27;;;;;;;;;;;;;;;21.14;72.10;99008.22;5058068;28;20349;-71
2022/08/14 05:34:58;;;;;;;;;;;;;;;21.26;71.74;98998.91;5058076;28;19925;-72
2022/08/14 05:37:27;;;;;;;;;;;;;;;21.38;71.65;99001.69;5058189;28;20285;-71
2022/08/14 05:39:58;;;;;;;;;;;;;;;21.45;71.49;98996.16;5057688;28;19974;-71
2022/08/14 05:42:28;;;;;;;;;;;;;;;21.56;71.30;98999.81;5057556;28;19924;-72
2022/08/14 05:45:02;;;;;;;;;;;;;;;21.66;70.87;99001.00;5057619;28;19925;-71
2022/08/14 05:47:32;;;;;;;;;;;;;;;21.74;70.39;98997.97;5057560;28;19932;-71
2022/08/14 05:50:10;;;;;;;;;;;;;;;21.80;70.14;99003.63;5057400;28;19971;-71
2022/08/14 05:52:48;;;;;;;;;;;;;;;21.89;69.98;99002.28;5057425;28;19960;-71
2022/08/14 05:55:18;;;;;;;;;;;;;;;22.04;69.54;99011.81;5057385;28;19924;-72
2022/08/14 05:57:51;;;;;;;;;;;;;;;22.20;69.14;99012.59;5057043;28;19933;-72
2022/08/14 06:00:22;;;;;;;;;;;;;;;22.35;68.75;99016.88;5057631;28;19996;-71
2022/08/14 06:02:57;;;;;;;;;;;;;;;22.46;68.42;99009.28;5057191;28;20019;-72
2022/08/14 06:05:28;;;;;;;;;;;;;;;22.60;67.96;99021.47;5057979;28;19925;-71
2022/08/14 06:07:57;;;;;;;;;;;;;;;22.70;67.50;99014.78;5057371;28;19925;-72
2022/08/14 06:10:26;;;;;;;;;;;;;;;22.87;67.19;99021.56;5057041;28;19932;-74
2022/08/14 06:12:56;;;;;;;;;;;;;;;22.96;66.61;99016.63;5056999;28;19948;-73
2022/08/14 06:15:25;;;;;;;;;;;;;;;23.08;66.10;99020.28;5057201;28;19932;-73
2022/08/14 06:17:58;;;;;;;;;;;;;;;23.17;65.81;99015.34;5055924;28;19925;-73
2022/08/14 06:20:29;;;;;;;;;;;;;;;23.25;65.47;98997.44;5057133;28;20476;-71
2022/08/14 06:23:01;;;;;;;;;;;;;;;23.37;65.14;98998.47;5057139;28;19950;-73
2022/08/14 06:25:31;;;;;;;;;;;;;;;23.42;64.92;98990.38;5057094;28;19924;-73
2022/08/14 06:28:00;;;;;;;;;;;;;;;23.51;64.66;98988.00;5057067;28;20427;-73
2022/08/14 06:30:33;;;;;;;;;;;;;;;23.50;64.29;98981.13;5057116;28;19935;-72
2022/08/14 06:33:15;;;;;;;;;;;;;;;23.54;64.13;98981.78;5056600;28;19974;-73
2022/08/14 06:35:48;;;;;;;;;;;;;;;23.51;64.16;98990.63;5055656;28;19970;-73
2022/08/14 06:38:18;;;;;;;;;;;;;;;23.53;64.02;98988.75;5056601;28;19940;-73
2022/08/14 06:40:49;;;;;;;;;;;;;;;23.57;63.95;98985.00;5056512;28;19964;-72
2022/08/14 06:43:21;;;;;;;;;;;;;;;23.69;63.82;98976.38;5055713;28;19924;-72
2022/08/14 06:45:57;;;;;;;;;;;;;;;23.77;63.43;98978.50;5056752;28;19928;-72
2022/08/14 06:48:27;;;;;;;;;;;;;;;23.81;63.29;98972.97;5056376;28;19964;-72
2022/08/14 06:51:01;;;;;;;;;;;;;;;23.97;63.08;98976.22;5056682;28;19960;-72
2022/08/14 06:53:30;;;;;;;;;;;;;;;24.11;62.75;98974.53;5056233;28;19964;-72
2022/08/14 06:55:58;;;;;;;;;;;;;;;24.23;62.66;98978.91;5056222;28;19928;-72
2022/08/14 06:58:30;;;;;;;;;;;;;;;24.36;62.25;98979.72;5055950;28;20378;-72
2022/08/14 07:06:20;;;;;;;;;;;;;;;24.44;61.59;98978.28;5056030;28;20293;-72
2022/08/14 07:09:09;;;;;;;;;;;;;;;24.57;61.62;98983.50;5055140;28;19932;-72
2022/08/14 07:11:38;;;;;;;;;;;;;;;24.62;61.13;98981.38;5055165;28;20370;-72
2022/08/14 07:14:07;;;;;;;;;;;;;;;24.64;61.00;98979.53;5055798;28;19925;-73
2022/08/14 07:16:36;;;;;;;;;;;;;;;24.58;60.68;98979.94;5055932;28;20293;-73
2022/08/14 07:19:07;;;;;;;;;;;;;;;24.65;60.75;98975.97;5055641;28;20042;-73
2022/08/14 07:21:38;;;;;;;;;;;;;;;24.76;60.62;98978.69;5056053;28;20324;-73
2022/08/14 07:24:07;;;;;;;;;;;;;;;24.86;60.48;98982.31;5055583;28;19924;-73
2022/08/14 07:26:49;;;;;;;;;;;;;;;24.97;60.35;98969.38;5055621;28;19928;-73
2022/08/14 07:29:18;;;;;;;;;;;;;;;25.12;60.00;98965.66;5055477;28;19925;-73
2022/08/14 07:31:53;;;;;;;;;;;;;;;25.22;59.52;98969.28;5055761;28;19925;-73
2022/08/14 07:34:21;;;;;;;;;;;;;;;25.35;59.30;98968.38;5055545;28;19967;-73
2022/08/14 07:37:05;;;;;;;;;;;;;;;25.43;58.89;98974.75;5055666;28;20290;-72
2022/08/14 07:39:34;;;;;;;;;;;;;;;25.47;58.62;98967.53;5055703;28;20451;-73
2022/08/14 07:42:02;;;;;;;;;;;;;;;25.47;58.02;98964.91;5055538;28;20370;-73
2022/08/14 07:44:31;;;;;;;;;;;;;;;25.52;58.22;98965.41;5055463;28;20027;-73
2022/08/14 07:47:14;;;;;;;;;;;;;;;25.68;59.07;98958.94;5055693;28;19925;-74
2022/08/14 07:49:52;;;;;;;;;;;;;;;25.79;57.99;98960.78;5054613;28;19964;-73
2022/08/14 07:52:25;;;;;;;;;;;;;;;25.91;57.16;98954.63;5055295;28;19932;-73
2022/08/14 07:55:00;;;;;;;;;;;;;;;25.96;56.90;98952.50;5055326;28;20310;-73
2022/08/14 07:57:29;;;;;;;;;;;;;;;25.99;56.55;98956.69;5054686;28;19925;-73
2022/08/14 07:59:57;;;;;;;;;;;;;;;26.09;56.73;98958.47;5055001;28;19967;-73
2022/08/14 08:02:29;;;;;;;;;;;;;;;26.11;56.48;98950.53;5055283;28;20436;-73
2022/08/14 08:05:00;;;;;;;;;;;;;;;26.18;56.31;98952.56;5053789;28;20371;-73
2022/08/14 08:07:30;;;;;;;;;;;;;;;26.39;55.07;98950.94;5055051;28;19994;-74
2022/08/14 08:10:29;;;;;;;;;;;;;;;26.47;54.77;98953.78;5054769;28;19960;-74
2022/08/14 08:13:12;;;;;;;;;;;;;;;26.59;53.61;98942.38;5055015;28;19924;-73
2022/08/14 08:15:42;;;;;;;;;;;;;;;26.78;53.47;98952.25;5055002;28;19925;-74
2022/08/14 08:18:14;;;;;;;;;;;;;;;26.97;53.33;98943.81;5054992;28;19924;-72
2022/08/14 08:20:56;;;;;;;;;;;;;;;27.20;52.53;98953.28;5054554;28;19928;-73
2022/08/14 08:23:31;;;;;;;;;;;;;;;27.29;52.05;98952.53;5054964;28;19925;-72
2022/08/14 08:26:18;;;;;;;;;;;;;;;27.47;51.63;98945.84;5054537;28;19932;-73
2022/08/14 08:28:55;;;;;;;;;;;;;;;27.61;51.08;98942.91;5054381;28;19970;-72
2022/08/14 08:31:25;;;;;;;;;;;;;;;27.53;50.41;98949.72;5054704;28;19929;-74
2022/08/14 08:34:04;;;;;;;;;;;;;;;27.49;50.30;98949.16;5053364;28;20011;-73
2022/08/14 08:36:39;;;;;;;;;;;;;;;27.41;50.61;98948.94;5054424;28;19932;-73
2022/08/14 08:39:10;;;;;;;;;;;;;;;27.30;51.49;98948.13;5054558;28;19991;-73
2022/08/14 08:41:50;;;;;;;;;;;;;;;27.20;51.57;98945.41;5054311;28;19963;-73
2022/08/14 08:44:22;;;;;;;;;;;;;;;27.30;51.57;98943.72;5054166;28;19924;-72
2022/08/14 08:47:04;;;;;;;;;;;;;;;27.48;50.79;98942.25;5054136;28;19931;-73
2022/08/14 08:49:41;;;;;;;;;;;;;;;27.71;50.75;98933.34;5054452;28;19978;-73
2022/08/14 08:52:28;;;;;;;;;;;;;;;28.04;50.42;98934.13;5054460;28;19924;-74
2022/08/14 08:55:01;;;;;;;;;;;;;;;28.18;50.54;98941.66;5054025;28;19924;-74
2022/08/14 08:57:34;;;;;;;;;;;;;;;28.11;49.94;98935.25;5052858;28;20427;-74
2022/08/14 09:00:12;;;;;;;;;;;;;;;27.96;50.00;98939.13;5053930;28;20390;-72
2022/08/14 09:02:56;;;;;;;;;;;;;;;27.97;49.53;98935.56;5053665;28;19925;-72
2022/08/14 09:05:25;;;;;;;;;;;;;;;28.04;49.92;98928.88;5053910;28;19925;-73
2022/08/14 09:07:54;;;;;;;;;;;;;;;27.84;49.42;98928.72;5053746;28;19932;-73
2022/08/14 09:10:25;;;;;;;;;;;;;;;27.59;49.82;98926.47;5053847;28;19925;-73
2022/08/14 09:12:54;;;;;;;;;;;;;;;27.82;50.54;98933.25;5053723;28;19971;-73
2022/08/14 09:15:23;;;;;;;;;;;;;;;27.62;50.19;98931.44;5053737;28;19929;-74
2022/08/14 09:17:52;;;;;;;;;;;;;;;27.61;50.49;98921.94;5054325;28;20008;-72
2022/08/14 09:20:22;;;;;;;;;;;;;;;27.80;50.50;98927.31;5053699;28;19931;-72
2022/08/14 09:22:58;;;;;;;;;;;;;;;28.11;49.88;98922.16;5054085;28;20007;-72
2022/08/14 09:25:29;;;;;;;;;;;;;;;27.86;49.29;98921.53;5053638;28;19925;-74
2022/08/14 09:28:19;;;;;;;;;;;;;;;27.95;49.97;98921.75;5054004;28;19974;-73
2022/08/14 09:30:53;;;;;;;;;;;;;;;28.27;49.90;98919.88;5053718;28;19983;-74
2022/08/14 09:33:38;;;;;;;;;;;;;;;28.40;49.77;98915.25;5053959;28;19939;-72
2022/08/14 09:36:39;;;;;;;;;;;;;;;28.19;49.50;98917.94;5053656;28;19928;-72
2022/08/14 09:39:19;;;;;;;;;;;;;;;28.53;49.51;98921.09;5053114;28;20404;-71
2022/08/14 09:42:01;;;;;;;;;;;;;;;28.77;48.66;98913.75;5053503;28;19935;-73
2022/08/14 09:44:58;;;;;;;;;;;;;;;29.00;48.28;98909.94;5051784;28;19931;-73
2022/08/14 09:47:46;;;;;;;;;;;;;;;29.23;47.90;98920.25;5052692;28;19932;-73
2022/08/14 09:50:20;;;;;;;;;;;;;;;29.08;47.63;98917.94;5053447;28;20362;-73
2022/08/14 09:52:55;;;;;;;;;;;;;;;29.32;47.84;98908.91;5053657;28;19947;-73
2022/08/14 09:55:26;;;;;;;;;;;;;;;29.54;47.73;98903.34;5053739;28;20274;-72
2022/08/14 09:58:10;;;;;;;;;;;;;;;29.65;47.22;98911.09;5053553;28;19939;-73
2022/08/14 10:00:50;;;;;;;;;;;;;;;29.80;46.58;98900.00;5053413;28;19971;-72
2022/08/14 10:03:29;;;;;;;;;;;;;;;29.91;46.28;98901.66;5053410;28;19925;-72
2022/08/14 10:06:07;;;;;;;;;;;;;;;29.79;46.32;98897.53;5053487;28;20316;-72
2022/08/14 10:08:44;;;;;;;;;;;;;;;29.65;46.25;98890.03;5053674;28;19929;-72
2022/08/14 10:11:21;;;;;;;;;;;;;;;29.30;46.99;98892.44;5052197;28;20012;-73
2022/08/14 10:13:53;;;;;;;;;;;;;;;29.05;46.90;98902.47;5053686;28;20003;-73
2022/08/14 10:16:29;;;;;;;;;;;;;;;28.77;46.87;98900.59;5019758;28;20294;-72
2022/08/14 10:19:05;;;;;;;;;;;;;;;28.78;47.07;98899.66;5056415;28;19925;-72
2022/08/14 10:21:35;;;;;;;;;;;;;;;28.80;46.80;98897.72;5056756;28;20283;-74
2022/08/14 10:24:24;;;;;;;;;;;;;;;29.03;46.48;98900.94;5055928;28;19925;-71
2022/08/14 10:27:05;;;;;;;;;;;;;;;29.22;46.08;98894.91;5056829;28;19925;-71
2022/08/14 10:29:34;;;;;;;;;;;;;;;29.49;45.70;98893.22;5056632;28;19924;-73
2022/08/14 10:32:05;;;;;;;;;;;;;;;29.87;45.76;98889.78;5056579;28;19925;-71
2022/08/14 10:35:03;;;;;;;;;;;;;;;30.20;44.63;98881.34;5056985;28;20302;-72
2022/08/14 10:37:38;;;;;;;;;;;;;;;30.22;43.49;98895.19;5056595;28;19925;-73
2022/08/14 11:17:47;;;;;;;1.05;1.02;;;;;;;28.72;45.86;98865.22;5132157;27;20486;-71
2022/08/14 11:20:19;;;;;;;1.20;1.10;;;;;;;28.72;45.83;98863.44;5132314;27;20066;-71
2022/08/14 11:22:53;;;;;;;1.35;1.25;;;;;;;28.69;45.41;98858.44;5132243;27;20035;-71
2022/08/14 11:25:30;;;;;;;1.85;0.90;;;;;;;28.66;44.97;98850.81;5131850;27;20054;-71
2022/08/14 11:28:14;;;;;;;0.80;0.80;;;;;;;28.65;43.79;98849.13;5132031;27;20035;-69
2022/08/14 11:30:50;;;;;;;1.00;0.90;;;;;;;28.67;43.67;98839.34;5131624;27;20489;-71
2022/08/14 11:33:24;;;;;;;0.98;0.90;;;;;;;28.72;43.67;98846.81;5131659;27;20549;-70
2022/08/14 11:35:53;;;;;;;1.52;0.82;;;;;;;28.73;43.78;98844.06;5131911;27;20366;-71
2022/08/14 11:38:27;;;;;;;2.42;1.05;;;;;;;28.77;43.36;98844.63;5131585;27;20053;-70
2022/08/14 11:40:57;;;;;;;;;;;;;;;28.88;43.22;98847.13;5132251;27;20435;-71
2022/08/14 11:43:27;;;;;;;1.75;0.70;;;;;;;28.94;43.42;98834.25;5131405;27;20384;-69
2022/08/14 11:46:01;;;;;;;2.88;1.38;;;;;;;28.99;42.75;98834.66;5131389;27;20097;-71
2022/08/14 11:48:45;;;;;;;0.82;0.82;;;;;;;29.07;42.81;98832.19;5131294;27;20480;-69
2022/08/14 11:51:33;;;;;;;1.23;0.85;;;;;;;29.25;41.91;98832.34;5131170;27;20048;-71
2022/08/14 11:54:22;;;;;;;1.35;1.25;;;;;;;29.58;41.73;98833.72;5131511;27;20050;-71
2022/08/14 11:57:02;;;;;;;0.52;0.52;;;;;;;29.54;41.35;98832.31;5131211;27;20088;-71
2022/08/14 11:59:32;;;;;;;;;;;;;;;29.31;41.62;98828.34;5131479;27;20035;-70
2022/08/14 12:02:13;;;;;;;1.13;0.95;;;;;;;29.39;41.82;98828.47;5131094;27;19919;-70
2022/08/14 12:05:04;;;;;;;0.68;0.68;;;;;;;29.70;41.65;98829.94;5131104;27;20042;-71
2022/08/14 12:07:48;;;;;;;1.30;0.95;;;;;;;30.07;40.95;98833.44;5130961;27;20056;-70
2022/08/14 12:10:19;;;;;;;1.60;1.00;;;;;;;30.32;39.66;98818.78;5130593;27;20043;-72
2022/08/14 12:12:55;;;;;;;0.77;0.77;;;;;;;30.50;39.05;98817.88;5131084;27;20147;-71
2022/08/14 12:15:32;;;;;;;1.25;1.02;;;;;;;30.74;39.21;98819.13;5130839;27;20516;-71
2022/08/14 12:18:03;;;;;;;0.80;0.80;;;;;;;31.05;38.20;98809.91;5130814;27;20067;-71
2022/08/14 12:20:42;;;;;;;1.75;1.00;;;;;;;31.44;37.54;98805.97;5131069;27;20039;-71
2022/08/14 12:23:23;;;;;;;1.40;1.15;;;;;;;31.48;36.82;98807.28;5130693;27;20481;-71
2022/08/14 12:26:04;;;;;;;0.68;0.68;;;;;;;31.57;36.88;98811.66;5131007;27;20058;-71
2022/08/14 12:29:07;;;;;;;1.10;0.90;;;;;;;31.56;36.20;98799.44;5118649;27;20139;-71
2022/08/14 12:31:37;;;;;;;1.30;1.08;;;;;;;31.50;35.42;98805.34;5116900;28;20561;-72
2022/08/14 12:34:16;;;;;;;0.88;0.82;;;;;;;31.43;34.95;98793.75;5115616;28;20043;-71
2022/08/14 12:36:50;;;;;;;0.70;0.70;;;;;;;31.56;34.68;98799.44;5116712;28;20043;-71
2022/08/14 12:39:22;;;;;;;2.40;0.82;;;;;;;31.62;33.91;98790.09;5116677;28;20051;-71
2022/08/14 12:41:55;;;;;;;1.65;0.90;;;;;;;31.35;34.07;98801.56;5116654;28;20052;-70
2022/08/14 12:44:33;;;;;;;1.13;1.02;;;;;;;31.39;35.14;98792.38;5116567;28;20047;-72
2022/08/14 12:47:11;;;;;;;0.97;0.87;;;;;;;31.56;35.03;98794.16;5116587;28;20040;-71
2022/08/14 12:49:52;;;;;;;0.70;0.70;;;;;;;31.70;34.84;98793.59;5116615;28;20048;-70
2022/08/14 12:52:30;;;;;;;2.75;0.80;;;;;;;31.64;34.58;98796.88;5116758;28;20044;-72
2022/08/14 12:55:20;;;;;;;0.70;0.70;;;;;;;31.70;34.61;98790.94;5116509;27;20401;-71
2022/08/14 12:57:52;;;;;;;1.25;1.15;;;;;;;31.76;34.74;98790.34;5116553;28;20094;-72
2022/08/14 13:00:24;;;;;;;0.75;0.75;;;;;;;31.74;34.38;98779.13;5116674;28;20100;-73
2022/08/14 13:02:55;;;;;;;0.75;0.75;;;;;;;31.79;33.96;98782.09;5116640;28;20073;-72
2022/08/14 13:05:27;;;;;;;2.05;1.00;;;;;;;31.87;33.88;98780.47;5116615;28;20055;-71
2022/08/14 13:07:59;;;;;;;0.82;0.80;;;;;;;31.79;34.40;98776.81;5116229;28;20492;-71
2022/08/14 13:10:34;;;;;;;1.13;0.90;;;;;;;31.79;34.67;98776.00;5116123;28;20052;-70
2022/08/14 13:13:20;;;;;;;1.10;0.95;;;;;;;31.78;33.79;98777.81;5116350;27;20116;-71
2022/08/14 13:15:54;;;;;;;0.75;0.75;;;;;;;31.71;33.37;98776.78;5116395;28;20047;-72
2022/08/14 13:18:26;;;;;;;3.30;1.77;;;;;;;31.64;32.60;98773.13;5115862;28;20089;-71
2022/08/14 13:21:00;;;;;;;1.25;1.15;;;;;;;31.67;33.10;98770.13;5116242;28;20039;-72
2022/08/14 13:23:35;;;;;;;0.70;0.70;;;;;;;31.66;33.22;98763.22;5115871;28;20079;-72
2022/08/14 13:26:07;;;;;;;0.60;0.60;;;;;;;31.74;33.60;98760.63;5115935;28;20123;-71
2022/08/14 13:28:41;;;;;;;1.38;0.98;;;;;;;31.79;33.96;98760.16;5115791;28;20046;-71
2022/08/14 13:31:33;;;;;;;1.95;1.00;;;;;;;31.51;34.39;98759.50;5115728;28;20053;-72
2022/08/14 13:34:02;;;;;;;1.23;1.08;;;;;;;31.09;34.91;98759.34;5115685;28;20485;-73
2022/08/14 13:36:32;;;;;;;0.95;0.85;;;;;;;31.07;35.80;98757.84;5115875;28;20161;-68
2022/08/14 13:39:24;;;;;;;1.00;0.90;;;;;;;31.42;35.57;98744.56;5114562;28;20043;-70
2022/08/14 13:41:53;;;;;;;1.17;0.85;;;;;;;31.68;34.94;98742.78;5115551;28;20073;-71
2022/08/14 13:44:27;;;;;;;1.23;1.00;;;;;;;31.83;35.49;98736.91;5115864;28;20043;-72
2022/08/14 13:46:57;;;;;;;2.95;1.05;;;;;;;31.80;34.75;98735.41;5115798;28;20044;-70
2022/08/14 13:49:26;;;;;;;0.90;0.88;;;;;;;31.63;34.16;98736.31;5115649;28;20035;-71
2022/08/14 13:52:01;;;;;;;1.13;1.02;;;;;;;31.55;33.74;98734.47;5115306;28;20515;-71
2022/08/14 13:54:36;;;;;;;0.70;0.70;;;;;;;31.34;34.36;98726.03;5115355;28;20065;-71
2022/08/14 13:57:08;;;;;;;0.60;0.60;;;;;;;31.20;34.32;98721.34;5115149;28;20558;-70
2022/08/14 13:59:41;;;;;;;0.90;0.88;;;;;;;31.31;34.23;98721.09;5115188;28;20489;-71
2022/08/14 14:02:10;;;;;;;2.60;1.75;;;;;;;31.33;34.44;98718.28;5115202;28;20047;-71
2022/08/14 14:05:03;;;;;;;1.15;1.05;;;;;;;31.39;34.94;98725.56;5115415;28;20044;-72
2022/08/14 14:07:34;;;;;;;1.10;1.00;;;;;;;31.39;35.20;98718.50;5115089;28;20043;-71
2022/08/14 14:10:13;;;;;;;1.40;1.20;;;;;;;31.47;34.72;98720.38;5114846;28;20047;-71